Minto, Canada
Current Conditions -  °F | °C
As of 9:00 PM on Monday 22 Dec 2014 (Local Time) from CYBR Reporting Station
Overcast Overcast  
Wind Chill: -7°   Ceiling: 700
Heat Index: -2°   Visibility: 10mi
Dew Point: -2°   Wind: 9mph
Humidity: 100%   Direction: 20°NNE
Pressure: 29.84"   Gusts: NA
Location:  49.4°N, 100.02°W
Report Text: CYBR 230300Z 02008KT 10SM BKN007 OVC031 M02/M02 A2984 RMK ST5SC3 BR SLP129
Loading
Personal Weather Stations






























Interactive Weather Map New forecast layout! Learn more

10-Day Weather Forecast

Advertisements
Track Severe Weather on mobile